Time;durP1;ratioP1;P1;durP2;ratioP2;P2;SDS_P1;SDS_P2;PMS_P1;PMS_P2;Temp;Humidity;BMP_temperature;BMP_pressure;BME280_temperature;BME280_humidity;BME280_pressure;Samples;Min_cycle;Max_cycle;Signal;HPM_P1;HPM_P2
2023/01/17 00:01:07;;;;;;;;;2.25;2.00;;;;;-144.24;100.00;60536.00;5102573;27;20769;-70
2023/01/17 00:09:51;;;;;;;;;1.25;1.00;;;;;-144.24;100.00;60536.00;5109268;27;8765;-71
2023/01/17 00:10:06;;;;;;;;;2.25;2.25;;;;;-144.24;100.00;60536.00;5108406;28;8773;-71
2023/01/17 00:26:17;;;;;;;;;1.50;1.00;;;;;-144.24;100.00;60536.00;5101973;28;9566;-71
2023/01/17 01:35:54;;;;;;;;;5.25;5.25;;;;;-144.24;100.00;60536.00;5107942;28;8819;-72
2023/01/17 01:38:22;;;;;;;;;5.00;5.00;;;;;-144.24;100.00;60536.00;5105065;27;8837;-71
2023/01/17 01:40:53;;;;;;;;;6.00;4.25;;;;;-144.24;100.00;60536.00;5097592;27;8849;-71
2023/01/17 01:43:38;;;;;;;;;5.25;5.00;;;;;-144.24;100.00;60536.00;5100957;28;8796;-72
2023/01/17 01:46:04;;;;;;;;;6.00;6.00;;;;;-144.24;100.00;60536.00;5093688;28;8795;-71
2023/01/17 01:48:38;;;;;;;;;9.25;7.25;;;;;-144.24;100.00;60536.00;5095921;28;19766;-71
2023/01/17 01:51:08;;;;;;;;;5.25;5.00;;;;;-144.24;100.00;60536.00;5098108;27;8797;-71
2023/01/17 01:53:36;;;;;;;;;6.25;5.00;;;;;-144.24;100.00;60536.00;5096111;28;8807;-71
2023/01/17 01:56:04;;;;;;;;;5.00;5.00;;;;;-144.24;100.00;60536.00;5094756;28;8799;-71
2023/01/17 01:58:32;;;;;;;;;5.00;5.00;;;;;-144.24;100.00;60536.00;5100855;28;8795;-71
2023/01/17 02:00:58;;;;;;;;;11.00;5.75;;;;;-144.24;100.00;60536.00;5099256;28;8792;-74
2023/01/17 02:03:26;;;;;;;;;7.50;5.00;;;;;-144.24;100.00;60536.00;5098461;28;16517;-72
2023/01/17 02:05:51;;;;;;;;;6.00;5.00;;;;;-144.24;100.00;60536.00;5109831;28;8833;-71
2023/01/17 02:08:19;;;;;;;;;4.75;4.75;;;;;-144.24;100.00;60536.00;5107098;28;22169;-73
2023/01/17 02:10:44;;;;;;;;;8.50;6.50;;;;;-144.24;100.00;60536.00;5104795;28;8837;-70
2023/01/17 02:13:12;;;;;;;;;5.00;5.00;;;;;-144.24;100.00;60536.00;5101892;28;8819;-73
2023/01/17 02:15:59;;;;;;;;;8.00;5.00;;;;;-144.24;100.00;60536.00;5098383;28;8846;-70
2023/01/17 02:18:39;;;;;;;;;9.00;5.00;;;;;-144.24;100.00;60536.00;5106697;28;8781;-74
2023/01/17 02:21:27;;;;;;;;;6.50;5.00;;;;;-144.24;100.00;60536.00;5109533;28;8846;-73
2023/01/17 02:24:29;;;;;;;;;6.00;4.25;;;;;-144.24;100.00;60536.00;5099117;28;9567;-71
2023/01/17 02:26:59;;;;;;;;;4.25;2.50;;;;;-144.24;100.00;60536.00;5113913;27;8837;-72
2023/01/17 02:29:45;;;;;;;;;4.00;4.00;;;;;-144.24;100.00;60536.00;5095905;28;8999;-71
2023/01/17 02:32:23;;;;;;;;;7.00;4.50;;;;;-144.24;100.00;60536.00;5102381;28;8819;-72
2023/01/17 02:35:06;;;;;;;;;4.75;3.50;;;;;-144.24;100.00;60536.00;5103412;28;8800;-71
2023/01/17 02:38:08;;;;;;;;;6.00;4.50;;;;;-144.24;100.00;60536.00;5109231;28;8799;-71
2023/01/17 02:40:36;;;;;;;;;6.75;5.25;;;;;-144.24;100.00;60536.00;5108543;28;8801;-71
2023/01/17 02:43:07;;;;;;;;;12.75;11.75;;;;;-144.24;100.00;60536.00;5108391;28;8804;-72
2023/01/17 02:45:32;;;;;;;;;32.25;25.00;;;;;-144.24;100.00;60536.00;5105692;28;8818;-71
2023/01/17 02:47:57;;;;;;;;;23.75;23.75;;;;;-144.24;100.00;60536.00;5108149;28;23731;-71
2023/01/17 02:50:30;;;;;;;;;24.25;21.50;;;;;-144.24;100.00;60536.00;5114161;27;9754;-72
2023/01/17 02:53:01;;;;;;;;;24.00;17.50;;;;;-144.24;100.00;60536.00;5111264;27;8779;-71
2023/01/17 02:55:39;;;;;;;;;20.00;14.00;;;;;-144.24;100.00;60536.00;5104395;28;8800;-73
2023/01/17 02:58:14;;;;;;;;;12.00;12.00;;;;;-144.24;100.00;60536.00;5110111;27;8807;-71
2023/01/17 03:01:01;;;;;;;;;9.75;9.00;;;;;-144.24;100.00;60536.00;5108766;27;8809;-71
2023/01/17 03:04:05;;;;;;;;;12.50;6.00;;;;;-144.24;100.00;60536.00;5105781;28;9543;-71
2023/01/17 03:07:10;;;;;;;;;9.75;6.00;;;;;-144.24;100.00;60536.00;5101118;28;8793;-71
2023/01/17 03:09:36;;;;;;;;;10.75;8.75;;;;;-144.24;100.00;60536.00;5070000;28;8819;-71
2023/01/17 03:12:03;;;;;;;;;8.00;8.00;;;;;-144.24;100.00;60536.00;5100731;28;8835;-73
2023/01/17 03:14:31;;;;;;;;;7.00;5.50;;;;;-144.24;100.00;60536.00;5094688;27;8795;-72
2023/01/17 03:16:57;;;;;;;;;6.00;6.00;;;;;-144.24;100.00;60536.00;5096881;28;8905;-71
2023/01/17 03:19:22;;;;;;;;;8.00;8.00;;;;;-144.24;100.00;60536.00;5078012;28;8791;-70
2023/01/17 03:21:48;;;;;;;;;7.00;4.00;;;;;-144.24;100.00;60536.00;5106265;28;23444;-72
2023/01/17 03:24:14;;;;;;;;;9.50;5.75;;;;;-144.24;100.00;60536.00;5110255;27;8793;-71
2023/01/17 03:26:39;;;;;;;;;9.00;5.25;;;;;-144.24;100.00;60536.00;5106893;28;12558;-71
2023/01/17 03:29:04;;;;;;;;;4.75;4.75;;;;;-144.24;100.00;60536.00;5099592;28;8822;-71
2023/01/17 03:31:30;;;;;;;;;3.50;3.50;;;;;-144.24;100.00;60536.00;5109422;27;8846;-71
2023/01/17 03:33:55;;;;;;;;;4.75;4.75;;;;;-144.24;100.00;60536.00;5106165;27;22721;-70
2023/01/17 03:36:21;;;;;;;;;2.50;2.50;;;;;-144.24;100.00;60536.00;5106538;27;25428;-72
2023/01/17 03:38:46;;;;;;;;;4.75;4.50;;;;;-144.24;100.00;60536.00;5101988;28;17289;-70
2023/01/17 03:41:11;;;;;;;;;6.00;4.75;;;;;-144.24;100.00;60536.00;5105420;28;8808;-72
2023/01/17 03:43:37;;;;;;;;;7.50;4.50;;;;;-144.24;100.00;60536.00;5110215;28;25722;-71
2023/01/17 03:46:19;;;;;;;;;4.50;4.50;;;;;-144.24;100.00;60536.00;5101904;27;8791;-69
2023/01/17 03:48:44;;;;;;;;;7.00;5.00;;;;;-144.24;100.00;60536.00;5092772;28;9624;-71
2023/01/17 03:51:09;;;;;;;;;5.00;5.00;;;;;-144.24;100.00;60536.00;5105906;28;8848;-71
2023/01/17 03:53:35;;;;;;;;;6.00;5.00;;;;;-144.24;100.00;60536.00;5111403;27;9018;-71
2023/01/17 03:56:00;;;;;;;;;6.00;6.00;;;;;-144.24;100.00;60536.00;5110996;28;20669;-72
2023/01/17 03:58:25;;;;;;;;;6.00;5.00;;;;;-144.24;100.00;60536.00;5101068;28;21103;-71
2023/01/17 04:00:51;;;;;;;;;9.50;6.50;;;;;-144.24;100.00;60536.00;5104923;27;25987;-72
2023/01/17 04:03:16;;;;;;;;;9.75;5.00;;;;;-144.24;100.00;60536.00;5108416;27;22284;-72
2023/01/17 04:05:41;;;;;;;;;6.00;5.00;;;;;-144.24;100.00;60536.00;5095371;27;23636;-72
2023/01/17 04:08:07;;;;;;;;;5.00;5.00;;;;;-144.24;100.00;60536.00;5112419;27;8847;-72
2023/01/17 04:10:32;;;;;;;;;5.25;5.25;;;;;-144.24;100.00;60536.00;5099964;28;8776;-72
2023/01/17 04:12:57;;;;;;;;;11.00;8.00;;;;;-144.24;100.00;60536.00;5105900;28;8819;-71
2023/01/17 04:15:23;;;;;;;;;5.50;5.50;;;;;-144.24;100.00;60536.00;5097177;28;25228;-73
2023/01/17 04:17:48;;;;;;;;;5.00;5.00;;;;;-144.24;100.00;60536.00;5109604;28;22116;-71
2023/01/17 04:20:37;;;;;;;;;7.00;6.50;;;;;-144.24;100.00;60536.00;5097462;28;8802;-71
2023/01/17 04:23:03;;;;;;;;;8.50;6.00;;;;;-144.24;100.00;60536.00;5102824;28;8817;-72
2023/01/17 04:25:29;;;;;;;;;11.50;6.00;;;;;-144.24;100.00;60536.00;5111408;27;8804;-72
2023/01/17 04:27:55;;;;;;;;;10.00;9.25;;;;;-144.24;100.00;60536.00;5111257;28;8789;-70
2023/01/17 04:30:21;;;;;;;;;9.25;8.50;;;;;-144.24;100.00;60536.00;5110179;27;8749;-73
2023/01/17 04:32:46;;;;;;;;;12.00;8.25;;;;;-144.24;100.00;60536.00;5106632;28;8812;-73
2023/01/17 04:35:12;;;;;;;;;14.50;12.00;;;;;-144.24;100.00;60536.00;5092315;28;20304;-70
2023/01/17 04:37:37;;;;;;;;;8.00;8.00;;;;;-144.24;100.00;60536.00;5103824;28;8777;-71
2023/01/17 04:40:04;;;;;;;;;10.50;7.75;;;;;-144.24;100.00;60536.00;5102207;28;9302;-71
2023/01/17 04:42:29;;;;;;;;;16.00;9.00;;;;;-144.24;100.00;60536.00;5102167;28;8819;-70
2023/01/17 04:44:55;;;;;;;;;9.00;7.50;;;;;-144.24;100.00;60536.00;5109777;27;24227;-74
2023/01/17 04:47:20;;;;;;;;;12.50;9.75;;;;;-144.24;100.00;60536.00;5097684;28;8819;-73
2023/01/17 04:49:46;;;;;;;;;12.50;7.50;;;;;-144.24;100.00;60536.00;5096574;27;8862;-73
2023/01/17 04:52:11;;;;;;;;;14.50;9.00;;;;;-144.24;100.00;60536.00;5091954;28;8857;-71
2023/01/17 04:54:37;;;;;;;;;13.75;12.50;;;;;-144.24;100.00;60536.00;5093964;28;8871;-70
2023/01/17 04:57:02;;;;;;;;;14.75;9.75;;;;;-144.24;100.00;60536.00;5091887;28;8807;-72
2023/01/17 04:59:28;;;;;;;;;17.75;9.50;;;;;-144.24;100.00;60536.00;5094950;28;8913;-72
2023/01/17 05:01:53;;;;;;;;;8.00;8.00;;;;;-144.24;100.00;60536.00;5098878;28;17489;-70
2023/01/17 05:04:18;;;;;;;;;16.25;10.50;;;;;-144.24;100.00;60536.00;5109954;27;8793;-72
2023/01/17 05:06:44;;;;;;;;;12.00;9.00;;;;;-144.24;100.00;60536.00;5096667;28;20547;-72
2023/01/17 05:09:09;;;;;;;;;12.00;9.25;;;;;-144.24;100.00;60536.00;5104915;27;20202;-71
2023/01/17 05:11:35;;;;;;;;;15.00;10.75;;;;;-144.24;100.00;60536.00;5115274;27;8796;-72
2023/01/17 05:14:00;;;;;;;;;12.50;11.00;;;;;-144.24;100.00;60536.00;5100533;28;26475;-70
2023/01/17 05:16:26;;;;;;;;;14.75;9.25;;;;;-144.24;100.00;60536.00;5097890;28;23544;-71
2023/01/17 05:18:52;;;;;;;;;14.75;12.00;;;;;-144.24;100.00;60536.00;5097916;27;8896;-72
2023/01/17 05:21:18;;;;;;;;;10.00;10.00;;;;;-144.24;100.00;60536.00;5112037;27;8832;-71
2023/01/17 05:23:43;;;;;;;;;15.00;12.25;;;;;-144.24;100.00;60536.00;5101076;27;8847;-72
2023/01/17 05:26:08;;;;;;;;;10.00;9.00;;;;;-144.24;100.00;60536.00;5092789;28;25156;-71
2023/01/17 05:28:34;;;;;;;;;10.50;9.00;;;;;-144.24;100.00;60536.00;5092619;28;23713;-71
2023/01/17 05:30:59;;;;;;;;;8.25;8.00;;;;;-144.24;100.00;60536.00;5107002;28;8889;-72
2023/01/17 05:33:24;;;;;;;;;12.50;11.00;;;;;-144.24;100.00;60536.00;5105092;28;20709;-71
2023/01/17 05:35:50;;;;;;;;;14.25;12.00;;;;;-144.24;100.00;60536.00;5111134;28;23138;-71
2023/01/17 05:38:15;;;;;;;;;13.25;10.25;;;;;-144.24;100.00;60536.00;5104238;27;8854;-72
2023/01/17 05:40:41;;;;;;;;;12.75;9.00;;;;;-144.24;100.00;60536.00;5110452;28;8832;-71
2023/01/17 05:43:07;;;;;;;;;13.25;10.25;;;;;-144.24;100.00;60536.00;5108516;27;25483;-72
2023/01/17 05:45:33;;;;;;;;;14.75;12.50;;;;;-144.24;100.00;60536.00;5099596;27;25536;-72
2023/01/17 05:47:58;;;;;;;;;10.75;8.75;;;;;-144.24;100.00;60536.00;5102989;28;8814;-70
2023/01/17 05:50:30;;;;;;;;;11.25;9.25;;;;;-144.24;100.00;60536.00;5108588;28;8828;-70
2023/01/17 05:52:57;;;;;;;;;10.50;9.00;;;;;-144.24;100.00;60536.00;5113123;27;9604;-72
2023/01/17 05:55:24;;;;;;;;;17.25;9.00;;;;;-144.24;100.00;60536.00;5110296;27;8781;-72
2023/01/17 05:57:49;;;;;;;;;14.75;9.25;;;;;-144.24;100.00;60536.00;5103701;28;8912;-72
2023/01/17 06:00:16;;;;;;;;;11.00;8.25;;;;;-144.24;100.00;60536.00;5097657;28;8788;-74
2023/01/17 06:02:42;;;;;;;;;15.25;10.00;;;;;-144.24;100.00;60536.00;5093529;28;8819;-71
2023/01/17 06:05:07;;;;;;;;;14.00;13.00;;;;;-144.24;100.00;60536.00;5094769;28;8905;-71
2023/01/17 06:07:33;;;;;;;;;11.25;9.50;;;;;-144.24;100.00;60536.00;5103195;28;9662;-69
2023/01/17 06:09:58;;;;;;;;;15.25;11.00;;;;;-144.24;100.00;60536.00;5102702;28;8801;-71
2023/01/17 06:12:24;;;;;;;;;8.25;8.25;;;;;-144.24;100.00;60536.00;5109614;28;8924;-71
2023/01/17 06:14:49;;;;;;;;;12.00;11.00;;;;;-144.24;100.00;60536.00;5108903;27;20588;-70
2023/01/17 06:17:14;;;;;;;;;12.50;8.75;;;;;-144.24;100.00;60536.00;5101239;28;22153;-71
2023/01/17 06:19:40;;;;;;;;;12.75;11.00;;;;;-144.24;100.00;60536.00;5099058;27;23786;-72
2023/01/17 06:22:05;;;;;;;;;10.00;10.00;;;;;-144.24;100.00;60536.00;5099350;28;8828;-71
2023/01/17 06:24:32;;;;;;;;;17.25;10.50;;;;;-144.24;100.00;60536.00;5096547;28;8796;-73
2023/01/17 06:26:57;;;;;;;;;7.25;6.25;;;;;-144.24;100.00;60536.00;5096815;28;8773;-70
2023/01/17 06:29:22;;;;;;;;;9.75;9.25;;;;;-144.24;100.00;60536.00;5112949;28;20585;-72
2023/01/17 06:31:48;;;;;;;;;17.00;12.75;;;;;-144.24;100.00;60536.00;5111462;27;22072;-73
2023/01/17 06:34:13;;;;;;;;;16.50;9.00;;;;;-144.24;100.00;60536.00;5099109;28;21824;-73
2023/01/17 06:36:38;;;;;;;;;14.00;11.50;;;;;-144.24;100.00;60536.00;5105486;27;20350;-71
2023/01/17 06:39:04;;;;;;;;;14.50;12.00;;;;;-144.24;100.00;60536.00;5100558;28;24013;-72
2023/01/17 06:41:29;;;;;;;;;21.00;12.75;;;;;-144.24;100.00;60536.00;5098983;28;8839;-72
2023/01/17 06:43:55;;;;;;;;;20.75;11.50;;;;;-144.24;100.00;60536.00;5106984;28;8844;-72
2023/01/17 06:46:21;;;;;;;;;12.00;11.25;;;;;-144.24;100.00;60536.00;5107504;28;9741;-71
2023/01/17 06:48:47;;;;;;;;;17.00;8.25;;;;;-144.24;100.00;60536.00;5101531;27;8880;-73
2023/01/17 06:51:13;;;;;;;;;9.75;9.50;;;;;-144.24;100.00;60536.00;5095739;27;8863;-72
2023/01/17 06:53:39;;;;;;;;;14.00;11.00;;;;;-144.24;100.00;60536.00;5105937;28;8862;-71
2023/01/17 06:56:04;;;;;;;;;11.75;9.00;;;;;-144.24;100.00;60536.00;5109105;28;8827;-71
2023/01/17 06:58:30;;;;;;;;;17.50;10.50;;;;;-144.24;100.00;60536.00;5109389;28;8906;-72
2023/01/17 07:00:55;;;;;;;;;15.50;11.00;;;;;-144.24;100.00;60536.00;5101561;28;21788;-72
2023/01/17 07:03:23;;;;;;;;;15.50;11.50;;;;;-144.24;100.00;60536.00;5105089;28;8804;-72
2023/01/17 07:05:49;;;;;;;;;15.25;10.50;;;;;-144.24;100.00;60536.00;5112715;28;8815;-70
2023/01/17 07:08:15;;;;;;;;;18.50;12.50;;;;;-144.24;100.00;60536.00;5107648;27;8801;-69
2023/01/17 07:10:43;;;;;;;;;16.25;11.25;;;;;-144.24;100.00;60536.00;5111105;27;8785;-72
2023/01/17 07:13:09;;;;;;;;;12.50;11.25;;;;;-144.24;100.00;60536.00;5112024;27;8924;-72
2023/01/17 07:15:34;;;;;;;;;12.50;10.50;;;;;-144.24;100.00;60536.00;5091938;28;9570;-71
2023/01/17 07:18:01;;;;;;;;;13.75;12.25;;;;;-144.24;100.00;60536.00;5105380;28;23069;-73
2023/01/17 07:20:26;;;;;;;;;12.25;12.25;;;;;-144.24;100.00;60536.00;5118984;27;8791;-72
2023/01/17 07:22:52;;;;;;;;;13.25;11.00;;;;;-144.24;100.00;60536.00;5101196;27;21824;-71
2023/01/17 07:25:18;;;;;;;;;15.00;10.25;;;;;-144.24;100.00;60536.00;5098041;28;8863;-72
2023/01/17 07:27:44;;;;;;;;;13.50;10.25;;;;;-144.24;100.00;60536.00;5102319;28;8811;-72
2023/01/17 07:30:10;;;;;;;;;15.75;11.00;;;;;-144.24;100.00;60536.00;5103498;28;8943;-72
2023/01/17 07:32:36;;;;;;;;;17.50;13.50;;;;;-144.24;100.00;60536.00;5105291;28;8827;-72
2023/01/17 07:35:01;;;;;;;;;13.00;8.50;;;;;-144.24;100.00;60536.00;5102925;27;8801;-72
2023/01/17 07:37:29;;;;;;;;;21.50;14.25;;;;;-144.24;100.00;60536.00;5100732;28;21146;-72
2023/01/17 07:39:55;;;;;;;;;15.00;14.00;;;;;-144.24;100.00;60536.00;5101648;28;23852;-72
2023/01/17 07:42:21;;;;;;;;;12.25;10.75;;;;;-144.24;100.00;60536.00;5096391;28;8825;-70
2023/01/17 07:44:46;;;;;;;;;13.25;10.25;;;;;-144.24;100.00;60536.00;5107297;27;8819;-72
2023/01/17 07:47:11;;;;;;;;;18.50;12.75;;;;;-144.24;100.00;60536.00;5101855;27;9511;-72
2023/01/17 07:49:37;;;;;;;;;14.50;12.75;;;;;-144.24;100.00;60536.00;5104080;28;8793;-71
2023/01/17 07:52:05;;;;;;;;;18.50;12.00;;;;;-144.24;100.00;60536.00;5098500;28;8814;-71
2023/01/17 07:54:30;;;;;;;;;12.50;12.50;;;;;-144.24;100.00;60536.00;5101968;28;8816;-71
2023/01/17 07:56:55;;;;;;;;;15.00;13.00;;;;;-144.24;100.00;60536.00;5104224;28;21941;-70
2023/01/17 07:59:21;;;;;;;;;14.50;13.00;;;;;-144.24;100.00;60536.00;5100818;28;23499;-72
2023/01/17 08:01:46;;;;;;;;;13.75;12.75;;;;;-144.24;100.00;60536.00;5093256;28;15532;-72
2023/01/17 08:04:12;;;;;;;;;10.25;10.00;;;;;-144.24;100.00;60536.00;5101015;28;21385;-72
2023/01/17 08:06:42;;;;;;;;;16.25;10.75;;;;;-144.24;100.00;60536.00;5103709;28;8797;-73
2023/01/17 08:09:07;;;;;;;;;13.25;13.00;;;;;-144.24;100.00;60536.00;5097349;28;8934;-71
2023/01/17 08:11:32;;;;;;;;;14.50;11.50;;;;;-144.24;100.00;60536.00;5105176;28;19215;-73
2023/01/17 08:13:58;;;;;;;;;11.75;10.25;;;;;-144.24;100.00;60536.00;5100636;27;17356;-73
2023/01/17 08:16:25;;;;;;;;;15.50;11.50;;;;;-144.24;100.00;60536.00;5104679;27;8792;-72
2023/01/17 08:18:51;;;;;;;;;15.00;11.25;;;;;-144.24;100.00;60536.00;5101162;28;8818;-71
2023/01/17 08:21:16;;;;;;;;;4.75;4.75;;;;;-144.24;100.00;60536.00;5096259;28;8839;-71
2023/01/17 08:23:46;;;;;;;;;14.50;10.00;;;;;-144.24;100.00;60536.00;5104980;28;23244;-72
2023/01/17 08:26:20;;;;;;;;;10.50;7.50;;;;;-144.24;100.00;60536.00;5092472;28;8792;-72
2023/01/17 08:28:47;;;;;;;;;20.00;13.25;;;;;-144.24;100.00;60536.00;5101674;28;8915;-72
2023/01/17 08:31:12;;;;;;;;;21.50;12.00;;;;;-144.24;100.00;60536.00;5106050;28;9575;-73
2023/01/17 08:33:38;;;;;;;;;16.75;11.25;;;;;-144.24;100.00;60536.00;5099175;28;17518;-72
2023/01/17 08:36:03;;;;;;;;;17.50;13.25;;;;;-144.24;100.00;60536.00;5096691;28;22869;-70
2023/01/17 08:38:29;;;;;;;;;14.00;14.00;;;;;-144.24;100.00;60536.00;5103640;27;8804;-73
2023/01/17 08:40:54;;;;;;;;;21.50;14.25;;;;;-144.24;100.00;60536.00;5096185;27;23475;-70
2023/01/17 08:43:20;;;;;;;;;14.25;14.25;;;;;-144.24;100.00;60536.00;5104839;27;8816;-70
2023/01/17 08:45:47;;;;;;;;;21.75;15.00;;;;;-144.24;100.00;60536.00;5102016;28;8839;-74
2023/01/17 08:48:13;;;;;;;;;24.50;18.25;;;;;-144.24;100.00;60536.00;5104150;27;8801;-71
2023/01/17 08:50:38;;;;;;;;;22.75;18.25;;;;;-144.24;100.00;60536.00;5098775;27;8787;-71
2023/01/17 08:53:04;;;;;;;;;25.50;18.00;;;;;-144.24;100.00;60536.00;5097043;28;8842;-71
2023/01/17 08:55:29;;;;;;;;;14.75;13.50;;;;;-144.24;100.00;60536.00;5104366;28;8876;-72
2023/01/17 08:57:55;;;;;;;;;22.00;13.00;;;;;-144.24;100.00;60536.00;5096324;27;18301;-71
2023/01/17 09:00:21;;;;;;;;;21.00;18.00;;;;;-144.24;100.00;60536.00;5096504;28;8791;-72
2023/01/17 09:02:46;;;;;;;;;14.75;13.00;;;;;-144.24;100.00;60536.00;5093368;27;8862;-71
2023/01/17 09:05:12;;;;;;;;;24.00;16.50;;;;;-144.24;100.00;60536.00;5099657;27;21599;-72
2023/01/17 09:07:37;;;;;;;;;15.50;10.00;;;;;-144.24;100.00;60536.00;5092662;28;8900;-70
2023/01/17 09:10:03;;;;;;;;;16.50;15.00;;;;;-144.24;100.00;60536.00;5097324;28;8811;-70
2023/01/17 09:12:31;;;;;;;;;15.50;10.75;;;;;-144.24;100.00;60536.00;5100650;28;8809;-72
2023/01/17 09:14:56;;;;;;;;;20.25;7.25;;;;;-144.24;100.00;60536.00;5094474;27;8870;-71
2023/01/17 09:17:22;;;;;;;;;18.00;14.00;;;;;-144.24;100.00;60536.00;5095751;28;9603;-71
2023/01/17 09:19:47;;;;;;;;;15.50;10.50;;;;;-144.24;100.00;60536.00;5110075;27;16547;-71
2023/01/17 09:22:13;;;;;;;;;12.50;12.50;;;;;-144.24;100.00;60536.00;5098971;28;8887;-73
2023/01/17 09:24:38;;;;;;;;;19.50;13.75;;;;;-144.24;100.00;60536.00;5106529;27;8935;-71
2023/01/17 09:27:04;;;;;;;;;18.25;11.00;;;;;-144.24;100.00;60536.00;5099487;28;8775;-71
2023/01/17 09:29:29;;;;;;;;;17.75;16.75;;;;;-144.24;100.00;60536.00;5107299;28;8813;-71
2023/01/17 09:31:55;;;;;;;;;13.50;10.50;;;;;-144.24;100.00;60536.00;5097599;27;8847;-73
2023/01/17 09:34:23;;;;;;;;;14.75;11.00;;;;;-144.24;100.00;60536.00;5100625;27;9527;-72
2023/01/17 09:36:48;;;;;;;;;21.00;14.25;;;;;-144.24;100.00;60536.00;5097476;28;8826;-71
2023/01/17 09:39:14;;;;;;;;;14.50;11.00;;;;;-144.24;100.00;60536.00;5102164;27;8795;-72
2023/01/17 09:42:06;;;;;;;;;17.00;11.00;;;;;-144.24;100.00;60536.00;5097737;28;9567;-72
2023/01/17 09:44:37;;;;;;;;;18.50;15.00;;;;;-144.24;100.00;60536.00;5098532;28;8865;-73
2023/01/17 09:47:12;;;;;;;;;19.00;12.50;;;;;-144.24;100.00;60536.00;5094630;28;8822;-70
2023/01/17 09:49:41;;;;;;;;;18.25;13.50;;;;;-144.24;100.00;60536.00;5102589;28;8818;-71
2023/01/17 09:52:16;;;;;;;;;17.75;12.25;;;;;-144.24;100.00;60536.00;5095502;28;8801;-71
2023/01/17 09:54:44;;;;;;;;;8.25;6.00;;;;;-144.24;100.00;60536.00;5102169;28;9549;-70
2023/01/17 09:57:24;;;;;;;;;11.25;9.75;;;;;-144.24;100.00;60536.00;5099834;28;8831;-71
2023/01/17 10:02:29;;;;;;;;;11.50;11.25;;;;;-144.24;100.00;60536.00;5199635;22;8815;-72
2023/01/17 10:05:18;;;;;;;;;14.75;13.75;;;;;-144.24;100.00;60536.00;5086359;28;8913;-71
2023/01/17 10:08:03;;;;;;;;;9.75;9.00;;;;;-144.24;100.00;60536.00;5088447;28;8796;-72
2023/01/17 10:10:41;;;;;;;;;13.75;10.50;;;;;-144.24;100.00;60536.00;5058134;28;9577;-73
2023/01/17 10:13:18;;;;;;;;;19.00;11.00;;;;;-144.24;100.00;60536.00;5092075;28;8818;-73
2023/01/17 10:16:00;;;;;;;;;11.25;9.75;;;;;-144.24;100.00;60536.00;5083453;28;8795;-73
2023/01/17 10:18:46;;;;;;;;;12.00;9.25;;;;;-144.24;100.00;60536.00;5088831;28;8850;-71
2023/01/17 10:21:49;;;;;;;;;11.25;10.00;;;;;-144.24;100.00;60536.00;5091455;28;8823;-72
2023/01/17 10:24:31;;;;;;;;;17.75;12.75;;;;;-144.24;100.00;60536.00;5089298;28;8799;-72
2023/01/17 10:26:59;;;;;;;;;13.50;11.00;;;;;-144.24;100.00;60536.00;5092724;28;8771;-72
2023/01/17 10:29:28;;;;;;;;;14.75;10.00;;;;;-144.24;100.00;60536.00;5091482;28;8787;-72
2023/01/17 10:32:01;;;;;;;;;9.75;9.75;;;;;-144.24;100.00;60536.00;5091803;28;8822;-71
2023/01/17 10:34:38;;;;;;;;;10.00;9.00;;;;;-144.24;100.00;60536.00;5095414;28;8795;-73
2023/01/17 10:37:16;;;;;;;;;14.25;11.50;;;;;-144.24;100.00;60536.00;5099585;28;8787;-70
2023/01/17 10:39:44;;;;;;;;;7.75;7.75;;;;;-144.24;100.00;60536.00;5098173;27;8839;-71
2023/01/17 10:42:20;;;;;;;;;9.75;8.50;;;;;-144.24;100.00;60536.00;5095149;28;8791;-73
2023/01/17 10:44:52;;;;;;;;;9.25;9.00;;;;;-144.24;100.00;60536.00;5097535;28;8807;-71
2023/01/17 10:47:21;;;;;;;;;15.50;8.25;;;;;-144.24;100.00;60536.00;5093956;28;8803;-73
2023/01/17 10:49:52;;;;;;;;;13.75;10.00;;;;;-144.24;100.00;60536.00;5095223;28;8892;-72
2023/01/17 10:52:36;;;;;;;;;9.00;7.25;;;;;-144.24;100.00;60536.00;5094625;28;8892;-72
2023/01/17 10:55:17;;;;;;;;;8.50;5.75;;;;;-144.24;100.00;60536.00;5096148;28;8804;-75
2023/01/17 10:57:44;;;;;;;;;10.75;10.50;;;;;-144.24;100.00;60536.00;5090493;28;8849;-74
2023/01/17 11:00:38;;;;;;;;;10.75;8.25;;;;;-144.24;100.00;60536.00;5093852;28;8818;-72
2023/01/17 11:03:04;;;;;;;;;9.75;9.25;;;;;-144.24;100.00;60536.00;5097781;28;8811;-74
2023/01/17 11:05:31;;;;;;;;;10.75;7.00;;;;;-144.24;100.00;60536.00;5097351;28;8803;-72
2023/01/17 11:08:00;;;;;;;;;13.25;11.00;;;;;-144.24;100.00;60536.00;5084592;28;8801;-72
2023/01/17 11:10:39;;;;;;;;;13.50;10.25;;;;;-144.24;100.00;60536.00;5093993;28;8803;-73
2023/01/17 11:13:19;;;;;;;;;7.50;7.00;;;;;-144.24;100.00;60536.00;5092135;28;8807;-74
2023/01/17 11:15:47;;;;;;;;;13.25;9.25;;;;;-144.24;100.00;60536.00;5091699;28;8807;-73
2023/01/17 11:18:20;;;;;;;;;11.00;10.75;;;;;-144.24;100.00;60536.00;5091197;28;8810;-72
2023/01/17 11:20:47;;;;;;;;;11.50;8.25;;;;;-144.24;100.00;60536.00;5092959;28;8843;-72
2023/01/17 11:23:21;;;;;;;;;8.75;8.75;;;;;-144.24;100.00;60536.00;5091334;28;8781;-72
2023/01/17 11:25:52;;;;;;;;;10.00;8.25;;;;;-144.24;100.00;60536.00;5092720;28;8805;-74
2023/01/17 11:28:31;;;;;;;;;11.25;6.00;;;;;-144.24;100.00;60536.00;5091498;28;8806;-74
2023/01/17 11:30:58;;;;;;;;;9.75;8.25;;;;;-144.24;100.00;60536.00;5089034;28;8814;-73
2023/01/17 11:33:44;;;;;;;;;11.75;10.00;;;;;-144.24;100.00;60536.00;5092804;28;8800;-72
2023/01/17 11:36:29;;;;;;;;;13.00;10.25;;;;;-144.24;100.00;60536.00;5091660;28;8792;-73
2023/01/17 11:39:05;;;;;;;;;10.50;8.50;;;;;-144.24;100.00;60536.00;5095772;28;8780;-71
2023/01/17 11:41:39;;;;;;;;;10.00;8.00;;;;;-144.24;100.00;60536.00;5096400;27;8799;-72
2023/01/17 11:44:19;;;;;;;;;17.75;12.50;;;;;-144.24;100.00;60536.00;5087316;28;9571;-72
2023/01/17 11:46:45;;;;;;;;;9.50;9.50;;;;;-144.24;100.00;60536.00;5088534;28;8810;-71
2023/01/17 11:49:23;;;;;;;;;10.00;10.00;;;;;-144.24;100.00;60536.00;5089381;28;18087;-71
2023/01/17 11:51:48;;;;;;;;;11.75;10.00;;;;;-144.24;100.00;60536.00;5090923;28;8786;-72
2023/01/17 11:54:17;;;;;;;;;14.75;8.00;;;;;-144.24;100.00;60536.00;5090176;28;23934;-73
2023/01/17 11:56:45;;;;;;;;;10.75;7.00;;;;;-144.24;100.00;60536.00;5091340;28;9756;-72
2023/01/17 11:59:23;;;;;;;;;13.00;7.75;;;;;-144.24;100.00;60536.00;5090679;28;8819;-72
2023/01/17 12:02:30;;;;;;;;;10.25;7.00;;;;;-144.24;100.00;60536.00;5104112;28;8823;-70
2023/01/17 12:05:14;;;;;;;;;14.00;6.50;;;;;-144.24;100.00;60536.00;5091210;28;8795;-72
2023/01/17 12:08:01;;;;;;;;;16.50;11.00;;;;;-144.24;100.00;60536.00;5092743;28;8823;-72
2023/01/17 12:10:41;;;;;;;;;13.50;9.00;;;;;-144.24;100.00;60536.00;5102814;28;8815;-74
2023/01/17 12:13:59;;;;;;;;;9.25;7.00;;;;;-144.24;100.00;60536.00;5090854;28;8807;-72
2023/01/17 12:16:30;;;;;;;;;7.50;6.50;;;;;-144.24;100.00;60536.00;5091254;28;8807;-72
2023/01/17 12:19:13;;;;;;;;;10.00;6.00;;;;;-144.24;100.00;60536.00;5081211;28;8908;-71
2023/01/17 12:21:54;;;;;;;;;6.75;6.00;;;;;-144.24;100.00;60536.00;5089824;28;8903;-71
2023/01/17 12:24:49;;;;;;;;;10.75;8.50;;;;;-144.24;100.00;60536.00;5089949;28;8826;-73
2023/01/17 12:27:27;;;;;;;;;11.50;7.00;;;;;-144.24;100.00;60536.00;5088721;28;8833;-71
2023/01/17 12:30:07;;;;;;;;;7.50;7.00;;;;;-144.24;100.00;60536.00;5089039;28;8828;-72
2023/01/17 12:32:43;;;;;;;;;13.50;9.00;;;;;-144.24;100.00;60536.00;5090799;28;8815;-72
2023/01/17 12:35:16;;;;;;;;;29.50;25.50;;;;;-144.24;100.00;60536.00;5089754;28;8787;-71
2023/01/17 12:37:44;;;;;;;;;11.25;9.25;;;;;-144.24;100.00;60536.00;5091474;28;8795;-72
2023/01/17 12:40:26;;;;;;;;;5.50;5.25;;;;;-144.24;100.00;60536.00;5091267;28;8775;-72
2023/01/17 12:43:00;;;;;;;;;5.25;5.00;;;;;-144.24;100.00;60536.00;5087744;28;8853;-72
2023/01/17 12:45:46;;;;;;;;;11.00;5.00;;;;;-144.24;100.00;60536.00;5093915;27;8768;-72
2023/01/17 12:48:18;;;;;;;;;7.00;5.25;;;;;-144.24;100.00;60536.00;5086540;28;8798;-72